Time;durP1;ratioP1;P1;durP2;ratioP2;P2;SDS_P1;SDS_P2;PMS_P1;PMS_P2;Temp;Humidity;BMP_temperature;BMP_pressure;BME280_temperature;BME280_humidity;BME280_pressure;Samples;Min_cycle;Max_cycle;Signal;HPM_P1;HPM_P2
2022/06/14 00:01:35;;;;;;;3.05;1.50;;;13.70;99.90;;;;;;5079887;28;20024;-70
2022/06/14 00:04:01;;;;;;;5.13;1.60;;;13.70;99.90;;;;;;5079863;28;20036;-70
2022/06/14 00:06:30;;;;;;;4.97;1.52;;;13.70;99.90;;;;;;5080330;28;20021;-70
2022/06/14 00:08:56;;;;;;;4.70;1.80;;;13.70;99.90;;;;;;5079758;28;20051;-71
2022/06/14 00:11:25;;;;;;;4.70;1.83;;;13.70;99.90;;;;;;5079904;28;20028;-70
2022/06/14 00:13:53;;;;;;;5.22;1.90;;;13.60;99.90;;;;;;5079832;28;20308;-70
2022/06/14 00:16:20;;;;;;;7.40;2.17;;;13.70;99.90;;;;;;5079780;28;20078;-70
2022/06/14 00:18:47;;;;;;;4.85;1.60;;;13.60;99.90;;;;;;5080119;28;20029;-71
2022/06/14 00:21:13;;;;;;;6.85;1.90;;;13.50;99.90;;;;;;5079600;28;20129;-70
2022/06/14 00:23:39;;;;;;;5.97;1.90;;;13.40;99.90;;;;;;5080157;28;20392;-70
2022/06/14 00:26:05;;;;;;;8.48;2.30;;;13.50;99.90;;;;;;5078833;28;20099;-72
2022/06/14 00:28:33;;;;;;;5.50;2.00;;;13.40;99.90;;;;;;5079712;28;20122;-71
2022/06/14 00:31:06;;;;;;;4.13;2.08;;;13.20;99.90;;;;;;5079396;28;20039;-71
2022/06/14 00:33:33;;;;;;;6.47;2.60;;;13.20;99.90;;;;;;5079357;28;20300;-69
2022/06/14 00:36:04;;;;;;;4.90;1.80;;;13.30;99.90;;;;;;5079187;28;20036;-70
2022/06/14 00:38:30;;;;;;;4.13;1.80;;;13.20;99.90;;;;;;5078418;28;20400;-70
2022/06/14 00:40:58;;;;;;;5.95;1.60;;;13.20;99.90;;;;;;5079297;28;20102;-70
2022/06/14 00:43:25;;;;;;;5.00;1.90;;;13.10;99.90;;;;;;5079179;28;20055;-70
2022/06/14 00:45:51;;;;;;;3.55;1.77;;;13.20;99.90;;;;;;5079101;28;20025;-71
2022/06/14 00:48:29;;;;;;;4.38;1.90;;;13.20;99.90;;;;;;5079164;28;20407;-70
2022/06/14 00:51:28;;;;;;;6.38;2.20;;;13.20;99.90;;;;;;5078941;28;20115;-70
2022/06/14 00:54:14;;;;;;;6.72;1.90;;;13.20;99.90;;;;;;5078835;28;20049;-70
2022/06/14 00:56:56;;;;;;;4.05;2.00;;;13.20;99.90;;;;;;5078983;28;20043;-70
2022/06/14 00:59:34;;;;;;;6.95;2.15;;;13.00;99.90;;;;;;5078979;28;20350;-70
2022/06/14 01:02:27;;;;;;;6.50;2.10;;;12.90;99.90;;;;;;5079535;28;20024;-70
2022/06/14 01:04:54;;;;;;;5.03;2.13;;;12.80;99.90;;;;;;5078757;28;20032;-70
2022/06/14 01:07:31;;;;;;;5.30;1.92;;;12.80;99.90;;;;;;5078986;28;20033;-70
2022/06/14 01:10:03;;;;;;;4.55;1.88;;;12.80;99.90;;;;;;5079035;28;20116;-70
2022/06/14 01:12:36;;;;;;;2.80;1.85;;;12.80;99.90;;;;;;5079554;28;20422;-70
2022/06/14 01:15:19;;;;;;;4.13;2.00;;;12.80;99.90;;;;;;5079259;28;20067;-70
2022/06/14 01:17:49;;;;;;;;;;;12.80;99.90;;;;;;5078365;28;20411;-70
2022/06/14 01:20:19;;;;;;;4.75;1.80;;;12.90;99.90;;;;;;5061262;28;19932;-69
2022/06/14 01:22:46;;;;;;;4.13;1.80;;;12.80;99.90;;;;;;5078744;28;20034;-70
2022/06/14 01:25:12;;;;;;;4.40;2.00;;;12.80;99.90;;;;;;5078522;28;20107;-70
2022/06/14 01:27:40;;;;;;;4.28;1.67;;;12.70;99.90;;;;;;5077720;28;20028;-70
2022/06/14 01:30:11;;;;;;;4.10;1.70;;;12.80;99.90;;;;;;5078833;28;20071;-69
2022/06/14 01:33:09;;;;;;;2.72;1.70;;;12.70;99.90;;;;;;5078454;28;20028;-71
2022/06/14 01:35:37;;;;;;;3.72;1.92;;;12.60;99.90;;;;;;5077769;28;20044;-70
2022/06/14 01:38:11;;;;;;;2.97;1.92;;;12.70;99.90;;;;;;5077987;28;20028;-70
2022/06/14 01:40:55;;;;;;;3.22;1.60;;;12.60;99.90;;;;;;5078269;28;20338;-69
2022/06/14 01:43:46;;;;;;;3.25;1.60;;;12.50;99.90;;;;;;5078156;28;20093;-70
2022/06/14 01:46:22;;;;;;;4.15;1.55;;;12.50;99.90;;;;;;5077922;28;20059;-70
2022/06/14 01:52:04;;;;;;;5.07;2.25;;;12.60;99.90;;;;;;5077626;28;20056;-70
2022/06/14 01:54:55;;;;;;;3.85;1.73;;;12.60;99.90;;;;;;5077739;28;20036;-70
2022/06/14 01:57:45;;;;;;;5.72;2.10;;;12.60;99.90;;;;;;5077679;28;20032;-71
2022/06/14 02:00:23;;;;;;;5.70;2.00;;;12.50;99.90;;;;;;5078130;28;20066;-70
2022/06/14 02:05:52;;;;;;;5.53;1.85;;;12.50;99.90;;;;;;5097167;28;20037;-70
2022/06/14 02:08:22;;;;;;;5.03;2.00;;;12.40;99.90;;;;;;5077545;28;20035;-71
2022/06/14 02:10:56;;;;;;;2.95;1.55;;;12.40;99.90;;;;;;5077701;28;20125;-70
2022/06/14 02:13:36;;;;;;;4.38;1.95;;;12.30;99.90;;;;;;5077482;28;20037;-70
2022/06/14 02:16:09;;;;;;;7.47;2.42;;;12.30;99.90;;;;;;5077655;28;20098;-70
2022/06/14 02:18:40;;;;;;;4.53;1.92;;;12.20;99.90;;;;;;5078101;28;20037;-69
2022/06/14 02:21:31;;;;;;;4.20;2.00;;;12.10;99.90;;;;;;5077448;28;20031;-71
2022/06/14 02:24:19;;;;;;;3.58;1.92;;;12.10;99.90;;;;;;5077902;28;20035;-68
2022/06/14 02:27:06;;;;;;;4.15;1.85;;;12.00;99.90;;;;;;5076508;28;20480;-69
2022/06/14 02:29:44;;;;;;;5.45;2.15;;;12.00;99.90;;;;;;5077274;28;20293;-69
2022/06/14 02:32:22;;;;;;;3.10;1.70;;;12.10;99.90;;;;;;5077277;28;20021;-70
2022/06/14 02:34:57;;;;;;;7.07;2.05;;;12.20;99.90;;;;;;5076574;28;20040;-70
2022/06/14 02:37:26;;;;;;;4.45;1.73;;;12.10;99.90;;;;;;5077169;28;20123;-69
2022/06/14 02:40:00;;;;;;;4.93;1.70;;;12.20;99.90;;;;;;5077015;28;20392;-69
2022/06/14 02:42:48;;;;;;;4.32;1.98;;;12.20;99.90;;;;;;5077250;28;20037;-70
2022/06/14 02:45:43;;;;;;;7.70;2.60;;;12.10;99.90;;;;;;5076945;28;20025;-71
2022/06/14 02:48:11;;;;;;;5.15;1.92;;;12.10;99.90;;;;;;5076446;28;20036;-70
2022/06/14 02:51:00;;;;;;;3.63;1.88;;;12.10;99.90;;;;;;5076144;28;20036;-71
2022/06/14 02:53:36;;;;;;;4.03;2.13;;;12.00;99.90;;;;;;5075829;28;20477;-70
2022/06/14 02:56:06;;;;;;;3.22;1.73;;;11.90;99.90;;;;;;5076569;28;20024;-70
2022/06/14 02:58:56;;;;;;;3.75;1.63;;;11.90;99.90;;;;;;5077042;28;20038;-69
2022/06/14 03:02:03;;;;;;;4.13;1.92;;;11.80;99.90;;;;;;5083538;28;20036;-70
2022/06/14 03:04:29;;;;;;;4.45;1.67;;;11.80;99.90;;;;;;5082792;28;20035;-70
2022/06/14 03:07:40;;;;;;;3.22;1.90;;;11.80;99.90;;;;;;5083365;28;20032;-70
2022/06/14 03:10:07;;;;;;;2.47;1.98;;;11.80;99.90;;;;;;5065540;28;20131;-69
2022/06/14 03:13:05;;;;;;;4.03;1.75;;;11.90;99.90;;;;;;5083682;28;20376;-69
2022/06/14 03:15:57;;;;;;;8.75;2.05;;;11.80;99.90;;;;;;5082247;28;20341;-69
2022/06/14 03:18:45;;;;;;;5.05;1.92;;;11.70;99.90;;;;;;5082241;28;20319;-70
2022/06/14 03:21:18;;;;;;;5.07;2.00;;;11.70;99.90;;;;;;5083426;28;20055;-70
2022/06/14 03:24:13;;;;;;;4.50;2.03;;;11.80;99.90;;;;;;5083515;28;20039;-70
2022/06/14 03:26:58;;;;;;;4.65;2.13;;;12.00;99.90;;;;;;5083392;28;20035;-70
2022/06/14 03:29:37;;;;;;;6.85;1.92;;;11.90;99.90;;;;;;5083532;28;20039;-70
2022/06/14 03:32:16;;;;;;;4.80;2.22;;;11.70;99.90;;;;;;5083362;28;20028;-69
2022/06/14 03:34:48;;;;;;;5.95;1.88;;;11.70;99.90;;;;;;5083310;28;20071;-70
2022/06/14 03:37:14;;;;;;;;;;;11.60;99.90;;;;;;5082965;28;20024;-69
2022/06/14 03:39:53;;;;;;;3.45;1.98;;;11.60;99.90;;;;;;5082682;28;19915;-69
2022/06/14 03:42:20;;;;;;;4.82;1.90;;;11.50;99.90;;;;;;5083711;28;20058;-69
2022/06/14 03:44:46;;;;;;;4.13;1.98;;;11.60;99.90;;;;;;5083107;28;20040;-69
2022/06/14 03:47:15;;;;;;;7.00;2.50;;;11.50;99.90;;;;;;5082333;28;20036;-70
2022/06/14 03:49:53;;;;;;;11.93;2.10;;;11.50;99.90;;;;;;5082569;28;20079;-69
2022/06/14 03:52:42;;;;;;;6.10;2.00;;;11.60;99.90;;;;;;5082021;28;20079;-69
2022/06/14 03:55:30;;;;;;;5.18;2.08;;;11.70;99.90;;;;;;5082200;28;20392;-69
2022/06/14 03:58:23;;;;;;;4.38;1.92;;;11.60;99.90;;;;;;5082966;28;20052;-69
2022/06/14 04:01:16;;;;;;;4.78;2.13;;;11.60;99.90;;;;;;5083695;28;20041;-69
2022/06/14 04:04:20;;;;;;;3.80;2.10;;;11.60;99.90;;;;;;5083103;28;20113;-69
2022/06/14 04:07:17;;;;;;;3.78;2.50;;;11.60;99.90;;;;;;5083143;28;20296;-68
2022/06/14 04:10:12;;;;;;;5.47;2.38;;;11.80;99.90;;;;;;5082899;28;20044;-69
2022/06/14 04:12:44;;;;;;;6.85;2.60;;;11.70;99.90;;;;;;5079415;28;20025;-68
2022/06/14 04:15:48;;;;;;;7.03;2.72;;;11.70;99.90;;;;;;5079764;28;20036;-69
2022/06/14 04:18:34;;;;;;;4.70;3.00;;;11.70;99.90;;;;;;5078286;28;20039;-68
2022/06/14 04:21:08;;;;;;;7.57;2.90;;;11.80;99.90;;;;;;5079906;28;20300;-69
2022/06/14 04:23:54;;;;;;;5.82;2.70;;;11.80;99.90;;;;;;5079795;28;20021;-69
2022/06/14 04:26:31;;;;;;;4.43;2.63;;;11.90;99.90;;;;;;5078909;28;20052;-71
2022/06/14 04:29:12;;;;;;;6.15;2.78;;;12.00;99.90;;;;;;5079498;28;20111;-70
2022/06/14 04:31:44;;;;;;;5.90;2.78;;;12.10;99.90;;;;;;5079180;28;20098;-70
2022/06/14 04:34:31;;;;;;;4.43;2.60;;;12.20;99.90;;;;;;5079627;28;20028;-70
2022/06/14 04:37:13;;;;;;;4.68;2.35;;;12.20;99.90;;;;;;5079837;28;20063;-70
2022/06/14 04:39:45;;;;;;;9.23;2.58;;;12.20;99.90;;;;;;5079597;28;20434;-69
2022/06/14 04:42:37;;;;;;;4.97;2.33;;;12.20;99.90;;;;;;5079431;28;20036;-69
2022/06/14 04:45:27;;;;;;;5.63;2.17;;;12.40;99.90;;;;;;5079753;28;20039;-69
2022/06/14 04:48:02;;;;;;;5.85;2.08;;;12.60;99.90;;;;;;5079348;28;20047;-70
2022/06/14 04:51:01;;;;;;;7.03;2.30;;;12.70;99.90;;;;;;5079061;28;20086;-70
2022/06/14 04:53:39;;;;;;;4.05;2.13;;;12.60;99.90;;;;;;5078769;28;20059;-70
2022/06/14 04:56:15;;;;;;;4.38;1.90;;;12.70;99.90;;;;;;5079001;28;20039;-70
2022/06/14 04:59:06;;;;;;;5.53;2.10;;;12.70;99.90;;;;;;5078930;28;20060;-70
2022/06/14 05:01:46;;;;;;;6.43;2.25;;;12.80;99.90;;;;;;5079449;28;20103;-70
2022/06/14 05:04:29;;;;;;;5.65;1.90;;;12.90;99.90;;;;;;5079086;28;20032;-70
2022/06/14 05:07:05;;;;;;;6.38;2.15;;;13.10;99.90;;;;;;5078771;28;20040;-71
2022/06/14 05:10:03;;;;;;;7.88;2.65;;;13.30;99.90;;;;;;5078578;28;20366;-70
2022/06/14 05:12:32;;;;;;;4.95;2.28;;;13.30;99.90;;;;;;5078795;28;20045;-71
2022/06/14 05:15:17;;;;;;;10.77;2.58;;;13.50;99.90;;;;;;5078288;28;20300;-70
2022/06/14 05:18:10;;;;;;;4.97;2.53;;;13.70;99.90;;;;;;5078820;28;20066;-71
2022/06/14 05:20:42;;;;;;;7.85;3.05;;;13.70;99.90;;;;;;5061257;28;20035;-72
2022/06/14 05:23:25;;;;;;;8.02;3.47;;;13.70;99.90;;;;;;5077592;28;20025;-72
2022/06/14 05:26:25;;;;;;;4.88;2.72;;;13.70;99.90;;;;;;5079585;28;20032;-69
2022/06/14 05:29:18;;;;;;;6.80;2.80;;;13.70;99.90;;;;;;5079779;28;20028;-71
2022/06/14 05:32:06;;;;;;;7.50;3.03;;;13.70;99.90;;;;;;5079641;28;20037;-71
2022/06/14 05:35:02;;;;;;;5.63;2.85;;;13.70;99.90;;;;;;5078917;28;20032;-70
2022/06/14 05:37:47;;;;;;;5.32;2.78;;;13.90;99.90;;;;;;5078618;28;20036;-71
2022/06/14 05:41:06;;;;;;;8.63;3.13;;;13.80;99.90;;;;;;5079389;28;20311;-70
2022/06/14 05:43:51;;;;;;;7.35;3.20;;;13.70;99.90;;;;;;5077183;28;20044;-71
2022/06/14 05:46:28;;;;;;;7.20;3.22;;;13.80;99.90;;;;;;5060639;28;20016;-71
2022/06/14 05:49:00;;;;;;;7.65;3.42;;;14.10;99.90;;;;;;5077476;28;20295;-70
2022/06/14 05:51:48;;;;;;;6.95;3.55;;;14.10;99.90;;;;;;5076776;28;20123;-70
2022/06/14 05:54:21;;;;;;;7.70;3.47;;;14.10;99.90;;;;;;5078799;28;20068;-71
2022/06/14 05:56:55;;;;;;;8.77;3.85;;;14.20;99.90;;;;;;5077863;28;20090;-72
2022/06/14 05:59:31;;;;;;;7.78;3.88;;;14.20;99.90;;;;;;5077614;28;20028;-71
2022/06/14 06:02:20;;;;;;;7.22;3.53;;;14.20;99.90;;;;;;5078121;28;20024;-72
2022/06/14 06:05:05;;;;;;;6.13;3.60;;;14.30;99.90;;;;;;5077316;28;20032;-71
2022/06/14 06:07:38;;;;;;;9.90;3.75;;;14.40;99.90;;;;;;5077188;28;20033;-71
2022/06/14 06:10:08;;;;;;;9.82;3.80;;;14.40;99.90;;;;;;5077924;28;20354;-71
2022/06/14 06:12:54;;;;;;;7.80;3.83;;;14.50;99.90;;;;;;5076759;28;20024;-71
2022/06/14 06:15:23;;;;;;;9.32;3.80;;;14.50;99.90;;;;;;5077808;28;20040;-71
2022/06/14 06:18:14;;;;;;;8.50;4.05;;;14.50;99.90;;;;;;5077647;28;20331;-71
2022/06/14 06:20:53;;;;;;;9.40;4.03;;;14.60;99.90;;;;;;5077900;28;20410;-71
2022/06/14 06:23:22;;;;;;;9.27;4.20;;;14.80;99.90;;;;;;5077166;28;20462;-72
2022/06/14 06:25:52;;;;;;;10.00;4.10;;;14.80;99.90;;;;;;5077662;28;20047;-69
2022/06/14 06:28:28;;;;;;;6.72;4.13;;;14.90;99.90;;;;;;5077393;28;20035;-69
2022/06/14 06:31:03;;;;;;;10.88;4.88;;;15.30;99.90;;;;;;5077711;28;20044;-70
2022/06/14 06:33:33;;;;;;;11.15;4.38;;;15.50;99.90;;;;;;5077458;28;20064;-70
2022/06/14 06:36:27;;;;;;;6.95;3.47;;;15.30;99.90;;;;;;5077860;28;20032;-71
2022/06/14 06:39:25;;;;;;;10.18;4.05;;;15.10;99.90;;;;;;5076742;28;20421;-71
2022/06/14 06:41:57;;;;;;;8.07;3.67;;;15.20;99.90;;;;;;5077485;28;20266;-71
2022/06/14 06:44:54;;;;;;;6.78;2.92;;;15.40;99.90;;;;;;5076836;28;20086;-69
2022/06/14 06:47:39;;;;;;;7.75;3.53;;;15.40;99.90;;;;;;5077265;28;20422;-70
2022/06/14 06:50:14;;;;;;;12.32;3.20;;;15.50;99.90;;;;;;5077070;28;20087;-70
2022/06/14 06:52:59;;;;;;;8.55;3.10;;;15.70;99.90;;;;;;5077026;28;20359;-70
2022/06/14 06:55:40;;;;;;;8.10;3.10;;;15.70;99.90;;;;;;5077068;28;20044;-71
2022/06/14 06:58:17;;;;;;;9.25;3.42;;;15.70;99.90;;;;;;5059322;28;20429;-67
2022/06/14 07:00:45;;;;;;;5.03;2.95;;;15.90;99.90;;;;;;5077273;28;20101;-72
2022/06/14 07:03:44;;;;;;;6.15;2.95;;;15.90;99.90;;;;;;5076242;28;20395;-71
2022/06/14 07:06:24;;;;;;;7.07;3.17;;;16.10;99.90;;;;;;5076157;28;20174;-71
2022/06/14 07:09:01;;;;;;;6.82;3.17;;;16.20;99.90;;;;;;5076143;28;20032;-72
2022/06/14 07:11:35;;;;;;;8.30;3.03;;;16.30;99.90;;;;;;5059673;28;20406;-72
2022/06/14 07:14:11;;;;;;;9.75;2.78;;;16.30;99.90;;;;;;5059270;28;20384;-71
2022/06/14 07:17:03;;;;;;;5.75;3.10;;;16.30;99.90;;;;;;5077313;28;20070;-71
2022/06/14 07:19:29;;;;;;;8.25;2.58;;;16.20;99.90;;;;;;5076625;28;20094;-70
2022/06/14 07:22:03;;;;;;;9.35;2.45;;;16.40;99.90;;;;;;5076718;28;20462;-72
2022/06/14 07:24:45;;;;;;;9.98;2.65;;;16.50;99.90;;;;;;5076146;28;20024;-71
2022/06/14 07:27:15;;;;;;;5.43;2.45;;;16.50;99.90;;;;;;5076301;28;20075;-71
2022/06/14 07:29:48;;;;;;;5.95;2.10;;;16.50;99.90;;;;;;5077224;28;20054;-71
2022/06/14 07:32:24;;;;;;;5.80;1.88;;;16.70;99.90;;;;;;5075964;28;20300;-71
2022/06/14 07:34:50;;;;;;;5.95;2.17;;;16.90;99.90;;;;;;5075879;28;20048;-70
2022/06/14 07:37:37;;;;;;;6.07;1.80;;;17.00;99.90;;;;;;5076519;28;20059;-69
2022/06/14 07:40:14;;;;;;;8.38;2.47;;;17.10;99.90;;;;;;5075812;28;20381;-71
2022/06/14 07:43:05;;;;;;;4.65;1.90;;;17.10;99.90;;;;;;5075817;28;20033;-71
2022/06/14 07:45:40;;;;;;;5.13;1.80;;;17.00;99.90;;;;;;5075914;28;20056;-70
2022/06/14 07:48:11;;;;;;;5.75;1.83;;;17.00;99.90;;;;;;5079740;28;20040;-71
2022/06/14 07:50:40;;;;;;;6.03;1.90;;;17.00;99.90;;;;;;5080419;28;20032;-72
2022/06/14 07:53:34;;;;;;;6.25;1.80;;;17.00;99.90;;;;;;5080383;28;20328;-72
2022/06/14 07:56:04;;;;;;;5.85;1.60;;;17.00;99.90;;;;;;5080139;28;20414;-72
2022/06/14 07:58:41;;;;;;;5.72;1.63;;;16.90;99.90;;;;;;5080170;28;20127;-69
2022/06/14 08:01:17;;;;;;;3.80;1.35;;;17.10;99.90;;;;;;5080059;28;20124;-70
2022/06/14 08:04:04;;;;;;;3.75;1.40;;;17.10;99.90;;;;;;5080094;28;20047;-70
2022/06/14 08:06:38;;;;;;;4.18;1.10;;;17.10;99.90;;;;;;5080043;28;20086;-70
2022/06/14 08:09:26;;;;;;;4.95;1.73;;;17.30;99.90;;;;;;5079408;28;20040;-70
2022/06/14 08:12:00;;;;;;;3.35;1.25;;;17.30;99.90;;;;;;5079890;28;20040;-71
2022/06/14 08:14:39;;;;;;;4.15;1.30;;;17.20;99.90;;;;;;5079507;28;20404;-71
2022/06/14 08:17:08;;;;;;;3.78;1.25;;;17.00;99.90;;;;;;5080411;28;20349;-70
2022/06/14 08:19:51;;;;;;;4.10;1.20;;;17.00;99.90;;;;;;5081439;28;20020;-71
2022/06/14 08:22:23;;;;;;;5.78;1.33;;;17.00;99.90;;;;;;5079636;28;20032;-70
2022/06/14 08:24:55;;;;;;;6.13;1.40;;;17.20;99.90;;;;;;5079762;28;20342;-72
2022/06/14 08:27:29;;;;;;;4.15;1.77;;;17.30;99.90;;;;;;5079615;28;20029;-70
2022/06/14 08:30:04;;;;;;;4.70;1.38;;;17.40;99.90;;;;;;5079494;28;20024;-71
2022/06/14 08:33:08;;;;;;;3.63;1.63;;;17.50;99.90;;;;;;5079464;28;20035;-71
2022/06/14 08:35:43;;;;;;;5.00;1.30;;;17.60;99.90;;;;;;5061291;28;20094;-70
2022/06/14 08:38:17;;;;;;;8.10;2.03;;;17.70;99.90;;;;;;5079045;28;20044;-68
2022/06/14 08:41:18;;;;;;;6.95;1.60;;;17.90;99.90;;;;;;5079891;28;20016;-70
2022/06/14 08:44:09;;;;;;;5.45;1.65;;;18.20;99.90;;;;;;5079296;28;20036;-71
2022/06/14 08:47:19;;;;;;;4.85;1.42;;;18.10;99.90;;;;;;5078831;28;20420;-71
2022/06/14 08:49:52;;;;;;;4.80;1.60;;;18.10;99.90;;;;;;5073642;28;20384;-70
2022/06/14 08:52:49;;;;;;;3.17;1.70;;;18.10;99.90;;;;;;5078920;28;20382;-72
2022/06/14 08:55:33;;;;;;;4.07;2.00;;;18.10;99.90;;;;;;5078410;28;20078;-72
2022/06/14 08:58:25;;;;;;;4.40;1.60;;;18.10;99.90;;;;;;5078659;28;20039;-71
2022/06/14 09:01:12;;;;;;;5.72;1.55;;;18.20;99.90;;;;;;5079438;28;20028;-72
2022/06/14 09:04:00;;;;;;;6.68;1.73;;;18.20;99.90;;;;;;5078999;28;20020;-72
2022/06/14 09:06:37;;;;;;;6.28;1.55;;;18.50;99.90;;;;;;5079275;28;20028;-72
2022/06/14 09:09:29;;;;;;;5.05;1.52;;;18.10;99.90;;;;;;5078977;28;20292;-71
2022/06/14 09:12:25;;;;;;;6.25;1.55;;;18.20;99.90;;;;;;5078202;28;20312;-72
2022/06/14 09:15:20;;;;;;;4.15;1.20;;;18.20;99.90;;;;;;5078935;28;20039;-73
2022/06/14 09:17:51;;;;;;;5.45;1.50;;;18.30;99.90;;;;;;5078621;28;20086;-71
2022/06/14 09:21:13;;;;;;;4.37;1.33;;;18.40;99.90;;;;;;5078580;28;20085;-70
2022/06/14 09:23:49;;;;;;;2.80;1.42;;;18.60;99.90;;;;;;5077308;28;20029;-72
2022/06/14 09:26:29;;;;;;;4.35;1.10;;;18.60;99.90;;;;;;5075109;28;20044;-72
2022/06/14 09:29:14;;;;;;;4.32;0.98;;;18.60;99.90;;;;;;5077697;28;20037;-71
2022/06/14 09:31:58;;;;;;;4.95;1.45;;;18.80;99.90;;;;;;5078193;28;20028;-70
2022/06/14 09:35:01;;;;;;;7.00;1.20;;;19.00;99.90;;;;;;5078390;28;20103;-72
2022/06/14 09:38:06;;;;;;;2.42;1.15;;;19.10;99.90;;;;;;5061401;28;20082;-71
2022/06/14 09:40:53;;;;;;;3.90;1.52;;;19.20;99.90;;;;;;5079140;28;20024;-72
2022/06/14 09:43:54;;;;;;;3.72;1.35;;;18.90;99.90;;;;;;5078464;28;20438;-72
2022/06/14 09:46:51;;;;;;;3.45;1.20;;;18.90;99.90;;;;;;5078076;28;20098;-70
2022/06/14 09:49:20;;;;;;;3.90;1.20;;;18.90;99.90;;;;;;5077963;28;20111;-71
2022/06/14 09:51:52;;;;;;;3.78;1.30;;;19.10;99.90;;;;;;5077092;28;20087;-71
2022/06/14 09:54:51;;;;;;;3.80;1.40;;;19.20;99.90;;;;;;5077852;28;20031;-72
2022/06/14 09:57:29;;;;;;;4.25;1.70;;;19.30;99.90;;;;;;5077313;28;20047;-71
2022/06/14 10:00:14;;;;;;;3.55;1.25;;;19.40;99.90;;;;;;5077745;28;20028;-71
2022/06/14 10:02:46;;;;;;;5.38;1.40;;;19.50;99.90;;;;;;5077771;28;20113;-70
2022/06/14 10:05:37;;;;;;;3.45;1.10;;;19.60;99.90;;;;;;5078449;28;20032;-70
2022/06/14 10:08:03;;;;;;;3.63;1.13;;;19.70;99.90;;;;;;5077750;28;20400;-70
2022/06/14 10:10:33;;;;;;;2.65;1.20;;;19.90;99.90;;;;;;5077497;28;20189;-67
2022/06/14 10:13:11;;;;;;;3.13;1.20;;;20.00;99.90;;;;;;5077570;28;20410;-69
2022/06/14 10:15:55;;;;;;;4.10;1.48;;;19.90;99.90;;;;;;5078354;28;20285;-67
2022/06/14 10:19:03;;;;;;;3.53;1.23;;;20.20;99.90;;;;;;5077855;28;20040;-69
2022/06/14 10:21:43;;;;;;;4.05;1.27;;;20.20;99.90;;;;;;5077339;28;20343;-69
2022/06/14 10:24:37;;;;;;;2.83;1.42;;;20.30;99.90;;;;;;5077538;28;20104;-69
2022/06/14 10:30:20;;;;;;;3.25;1.20;;;20.40;99.90;;;;;;5077305;28;20066;-72
2022/06/14 10:33:20;;;;;;;6.40;1.58;;;20.50;99.90;;;;;;5077358;28;20058;-72
2022/06/14 10:35:58;;;;;;;3.33;1.25;;;20.40;99.90;;;;;;5076612;28;20032;-70
2022/06/14 10:38:42;;;;;;;2.92;1.52;;;20.70;99.90;;;;;;5077357;28;20292;-71
2022/06/14 10:41:16;;;;;;;3.47;1.13;;;20.80;99.90;;;;;;5077805;28;20029;-72
2022/06/14 10:44:09;;;;;;;4.13;1.40;;;20.60;99.90;;;;;;5077458;28;20415;-71
2022/06/14 10:46:43;;;;;;;2.75;1.35;;;20.60;99.90;;;;;;5077163;28;20067;-70
2022/06/14 10:49:46;;;;;;;3.50;1.67;;;20.90;99.90;;;;;;5077244;28;20032;-69
2022/06/14 10:52:43;;;;;;;3.47;1.23;;;21.20;99.90;;;;;;5076823;28;20048;-70
2022/06/14 10:55:17;;;;;;;4.57;1.38;;;21.30;99.90;;;;;;5076911;28;20098;-71
2022/06/14 10:57:59;;;;;;;4.40;1.75;;;21.60;99.90;;;;;;5077007;28;20042;-68
2022/06/14 11:00:37;;;;;;;2.47;1.23;;;21.70;99.90;;;;;;5076579;28;20043;-71
2022/06/14 11:03:39;;;;;;;5.45;1.60;;;21.60;99.90;;;;;;5077074;28;20099;-69
2022/06/14 11:06:26;;;;;;;4.25;1.55;;;21.80;99.90;;;;;;5076439;28;20044;-70
2022/06/14 11:09:41;;;;;;;5.32;1.50;;;22.00;99.90;;;;;;5077380;28;20021;-70
2022/06/14 11:12:26;;;;;;;2.92;1.20;;;23.30;99.90;;;;;;5075736;28;20303;-70
2022/06/14 11:15:32;;;;;;;2.97;1.30;;;24.40;99.90;;;;;;5076911;28;20403;-68
2022/06/14 11:18:10;;;;;;;4.38;1.70;;;24.80;99.90;;;;;;5076822;28;20029;-70
2022/06/14 11:20:49;;;;;;;2.92;1.42;;;25.00;99.90;;;;;;5077801;28;20074;-72
2022/06/14 11:23:31;;;;;;;2.78;1.38;;;26.60;99.90;;;;;;5064046;28;20120;-73
2022/06/14 11:26:28;;;;;;;5.07;1.40;;;28.30;99.90;;;;;;5080377;28;20034;-72
2022/06/14 11:29:03;;;;;;;4.22;1.60;;;28.80;95.20;;;;;;5081026;28;20356;-70
2022/06/14 11:31:54;;;;;;;3.50;1.35;;;27.80;93.40;;;;;;5081241;28;20358;-71
2022/06/14 11:34:55;;;;;;;4.88;1.90;;;28.60;94.20;;;;;;5081291;28;20029;-71
2022/06/14 11:37:50;;;;;;;4.32;1.83;;;29.20;90.10;;;;;;5079891;28;20028;-72
2022/06/14 11:40:31;;;;;;;4.78;1.40;;;28.70;90.00;;;;;;5080640;28;20060;-72
2022/06/14 11:43:06;;;;;;;3.58;1.70;;;28.40;90.40;;;;;;5080708;28;20024;-72
2022/06/14 11:45:50;;;;;;;3.53;1.67;;;28.60;89.30;;;;;;5080347;28;20115;-71
2022/06/14 11:48:20;;;;;;;4.22;1.58;;;29.90;85.30;;;;;;5080320;28;20029;-72
2022/06/14 11:50:52;;;;;;;2.28;1.40;;;31.30;81.90;;;;;;5080512;28;20299;-70
2022/06/14 11:53:29;;;;;;;7.38;1.75;;;31.60;76.10;;;;;;5080192;28;20131;-70
2022/06/14 11:56:06;;;;;;;4.30;1.50;;;30.80;76.90;;;;;;5080873;28;20040;-72
2022/06/14 11:58:39;;;;;;;3.22;1.52;;;30.10;76.10;;;;;;5079239;28;20028;-71
2022/06/14 12:01:20;;;;;;;2.83;1.20;;;30.10;77.90;;;;;;5079369;28;20396;-70
2022/06/14 12:04:20;;;;;;;5.22;1.48;;;31.70;73.70;;;;;;5080347;28;20047;-72
2022/06/14 12:07:07;;;;;;;4.72;2.05;;;32.90;69.50;;;;;;5080127;28;20372;-68
2022/06/14 12:09:46;;;;;;;3.85;1.65;;;31.80;65.90;;;;;;5079944;28;20041;-70
2022/06/14 12:12:35;;;;;;;3.40;1.73;;;32.80;66.50;;;;;;5079881;28;20111;-71
2022/06/14 12:15:03;;;;;;;3.28;1.52;;;34.30;63.00;;;;;;5079316;28;20318;-72
2022/06/14 12:17:33;;;;;;;4.05;1.40;;;35.00;59.10;;;;;;5080060;28;20043;-70
2022/06/14 12:20:11;;;;;;;3.20;1.30;;;33.60;58.70;;;;;;5079734;28;20025;-71
2022/06/14 12:22:52;;;;;;;3.08;1.70;;;34.80;57.40;;;;;;5079660;28;20033;-70
2022/06/14 12:28:11;;;;;;;6.03;1.40;;;32.00;59.50;;;;;;5079651;28;20040;-69
2022/06/14 12:30:41;;;;;;;3.30;1.40;;;32.00;59.80;;;;;;5079481;28;20036;-70
2022/06/14 12:33:31;;;;;;;3.28;1.40;;;32.10;59.10;;;;;;5061946;28;20045;-71
2022/06/14 12:36:16;;;;;;;4.05;1.30;;;33.20;59.30;;;;;;5079423;28;20032;-72
2022/06/14 12:38:47;;;;;;;3.15;1.10;;;34.70;56.60;;;;;;5079109;28;20036;-72
2022/06/14 12:41:31;;;;;;;2.53;1.30;;;34.50;55.30;;;;;;5080008;28;20034;-72
2022/06/14 12:44:02;;;;;;;4.28;1.30;;;36.10;54.40;;;;;;5061896;28;20113;-70
2022/06/14 12:46:34;;;;;;;3.22;1.20;;;37.10;51.50;;;;;;5079214;28;20372;-70
2022/06/14 12:49:13;;;;;;;4.15;1.40;;;35.50;50.60;;;;;;5078514;28;20055;-70
2022/06/14 12:51:52;;;;;;;4.35;1.15;;;35.60;51.50;;;;;;5078920;28;20048;-71
2022/06/14 12:54:44;;;;;;;4.18;1.10;;;35.10;51.50;;;;;;5079091;28;20125;-71
2022/06/14 12:57:29;;;;;;;;;;;34.70;50.80;;;;;;5079900;28;20396;-70
2022/06/14 13:00:18;;;;;;;2.40;1.00;;;35.60;50.30;;;;;;5078379;28;20351;-71
2022/06/14 13:03:07;;;;;;;4.45;1.23;;;35.60;49.60;;;;;;5078952;28;20037;-69
2022/06/14 13:05:45;;;;;;;3.33;1.00;;;34.00;50.90;;;;;;5078149;28;20363;-69
2022/06/14 13:08:47;;;;;;;2.63;1.00;;;35.00;50.10;;;;;;5078778;28;20024;-70
2022/06/14 13:11:35;;;;;;;5.57;1.53;;;35.20;48.10;;;;;;5078712;28;20029;-72
2022/06/14 13:14:09;;;;;;;4.22;1.33;;;34.40;49.40;;;;;;5078344;28;20033;-71
2022/06/14 13:16:52;;;;;;;3.65;1.33;;;35.00;48.30;;;;;;5078709;28;20025;-69
2022/06/14 13:19:27;;;;;;;2.10;1.20;;;35.90;48.40;;;;;;5078469;28;20119;-68
2022/06/14 13:22:24;;;;;;;3.97;1.10;;;36.70;46.90;;;;;;5078584;28;20252;-72
2022/06/14 13:25:08;;;;;;;3.85;1.15;;;37.40;45.80;;;;;;5061417;28;20025;-72
2022/06/14 13:28:04;;;;;;;3.17;1.13;;;39.10;44.40;;;;;;5078503;28;20025;-71
2022/06/14 13:30:55;;;;;;;5.13;1.10;;;40.30;42.60;;;;;;5078977;28;20040;-72
2022/06/14 13:33:55;;;;;;;2.55;1.05;;;40.60;40.90;;;;;;5078310;28;20033;-72
2022/06/14 13:36:29;;;;;;;2.95;1.25;;;40.20;40.60;;;;;;5078221;28;20035;-72
2022/06/14 13:39:12;;;;;;;2.28;1.20;;;40.30;40.00;;;;;;5078544;28;20044;-72
2022/06/14 13:42:00;;;;;;;2.92;1.20;;;40.60;39.30;;;;;;5060780;28;20035;-71
2022/06/14 13:44:42;;;;;;;2.95;0.93;;;39.10;38.70;;;;;;5077148;28;20303;-71
2022/06/14 13:47:33;;;;;;;4.47;1.13;;;38.10;40.10;;;;;;5078412;28;20291;-71
2022/06/14 13:50:21;;;;;;;3.13;0.95;;;39.10;39.40;;;;;;5078075;28;20338;-71
2022/06/14 13:53:16;;;;;;;2.72;1.00;;;40.30;38.70;;;;;;5077654;28;20140;-71
2022/06/14 13:55:48;;;;;;;4.03;1.10;;;40.00;38.40;;;;;;5077444;28;20115;-70
2022/06/14 13:58:33;;;;;;;3.50;1.20;;;39.50;38.60;;;;;;5076891;28;20138;-69
2022/06/14 14:01:22;;;;;;;1.50;1.00;;;38.20;39.30;;;;;;5077672;28;20452;-71
2022/06/14 14:03:57;;;;;;;4.53;1.20;;;38.40;38.30;;;;;;5077011;28;20037;-70
2022/06/14 14:06:32;;;;;;;6.47;1.23;;;38.20;39.30;;;;;;5077695;28;20033;-72
2022/06/14 14:09:15;;;;;;;3.15;1.27;;;38.30;39.40;;;;;;5077951;28;20284;-71
2022/06/14 14:12:07;;;;;;;3.35;1.27;;;39.90;38.40;;;;;;5077470;28;20090;-70
2022/06/14 14:14:44;;;;;;;2.35;0.90;;;39.80;37.30;;;;;;5078511;28;20024;-72